createdAt,value
2023-02-18T00:01:35.865Z,7.71
2023-02-18T00:04:11.955Z,7.52
2023-02-18T00:06:42.034Z,7.58
2023-02-18T00:09:16.621Z,7.79
2023-02-18T00:11:43.586Z,7.81
2023-02-18T00:14:15.262Z,7.81
2023-02-18T00:16:44.037Z,7.52
2023-02-18T00:19:16.173Z,7.27
2023-02-18T00:21:44.625Z,7.60
2023-02-18T00:24:15.467Z,7.56
2023-02-18T00:26:54.152Z,7.53
2023-02-18T00:29:21.558Z,7.62
2023-02-18T00:32:17.141Z,7.64
2023-02-18T00:34:44.079Z,7.67
2023-02-18T00:37:14.553Z,7.72
2023-02-18T00:39:41.514Z,7.64
2023-02-18T00:42:08.585Z,7.49
2023-02-18T00:44:35.373Z,7.62
2023-02-18T00:47:06.414Z,7.46
2023-02-18T00:49:33.570Z,7.82
2023-02-18T00:52:05.227Z,7.64
2023-02-18T00:54:33.574Z,7.63
2023-02-18T00:57:02.446Z,7.63
2023-02-18T00:59:29.284Z,7.74
2023-02-18T01:01:56.214Z,7.38
2023-02-18T01:04:36.294Z,7.36
2023-02-18T01:07:03.195Z,7.52
2023-02-18T01:09:30.349Z,7.53
2023-02-18T01:12:26.119Z,7.67
2023-02-18T01:14:54.651Z,7.59
2023-02-18T01:17:21.254Z,7.41
2023-02-18T01:19:48.092Z,7.36
2023-02-18T01:22:15.185Z,7.75
2023-02-18T01:24:46.473Z,7.40
2023-02-18T01:27:18.825Z,7.54
2023-02-18T01:29:45.813Z,7.69
2023-02-18T01:32:13.122Z,7.36
2023-02-18T01:34:41.038Z,7.65
2023-02-18T01:37:07.816Z,7.72
2023-02-18T01:39:35.890Z,7.73
2023-02-18T01:42:06.505Z,7.79
2023-02-18T01:44:37.736Z,7.67
2023-02-18T01:47:09.027Z,7.78
2023-02-18T01:49:38.269Z,7.90
2023-02-18T01:52:27.288Z,8.06
2023-02-18T01:54:58.046Z,7.75
2023-02-18T01:57:36.244Z,7.79
2023-02-18T02:00:22.931Z,7.45
2023-02-18T02:02:53.119Z,7.63
2023-02-18T02:05:22.051Z,7.55
2023-02-18T02:07:52.139Z,7.39
2023-02-18T02:10:19.656Z,7.48
2023-02-18T02:13:00.911Z,7.50
2023-02-18T02:15:34.520Z,7.63
2023-02-18T02:18:10.656Z,7.55
2023-02-18T02:20:56.258Z,7.66
2023-02-18T02:23:26.640Z,7.79
2023-02-18T02:26:04.639Z,7.59
2023-02-18T02:28:34.523Z,7.60
2023-02-18T02:31:09.851Z,7.79
2023-02-18T02:34:01.239Z,7.50
2023-02-18T02:36:39.386Z,7.42
2023-02-18T02:39:33.104Z,7.63
2023-02-18T02:42:50.559Z,7.37
2023-02-18T02:45:46.061Z,7.59
2023-02-18T02:48:32.766Z,7.54
2023-02-18T02:52:38.944Z,7.79
2023-02-18T02:55:51.129Z,7.83
2023-02-18T02:58:44.219Z,7.99
2023-02-18T03:01:50.086Z,7.95
2023-02-18T03:05:04.598Z,7.77
2023-02-18T03:07:47.095Z,7.87
2023-02-18T03:10:40.064Z,7.87
2023-02-18T03:13:16.930Z,7.63
2023-02-18T03:15:57.379Z,7.83
2023-02-18T03:19:07.094Z,7.80
2023-02-18T03:21:43.461Z,7.86
2023-02-18T03:24:24.085Z,7.63
2023-02-18T03:27:00.179Z,7.62
2023-02-18T03:29:29.159Z,7.43
2023-02-18T03:32:00.746Z,7.66
2023-02-18T03:34:31.933Z,7.55
2023-02-18T03:37:01.216Z,7.22
2023-02-18T03:39:40.462Z,7.46
2023-02-18T03:42:07.896Z,7.09
2023-02-18T03:45:26.248Z,7.38
2023-02-18T03:47:54.542Z,7.44
2023-02-18T03:50:26.181Z,7.36
2023-02-18T03:52:54.678Z,7.30
2023-02-18T03:55:21.566Z,7.29
2023-02-18T03:57:57.442Z,7.61
2023-02-18T04:00:38.185Z,7.21
2023-02-18T04:03:05.302Z,7.12
2023-02-18T04:05:32.121Z,7.11
2023-02-18T04:08:01.017Z,7.18
2023-02-18T04:10:28.045Z,7.20
2023-02-18T04:12:58.082Z,7.15
2023-02-18T04:15:29.052Z,7.19
2023-02-18T04:17:56.238Z,7.24
2023-02-18T04:20:34.028Z,7.26
2023-02-18T04:23:01.654Z,7.32
2023-02-18T04:25:43.348Z,7.36
2023-02-18T04:28:14.151Z,7.47
2023-02-18T04:30:41.924Z,7.15
2023-02-18T04:33:08.557Z,7.51
2023-02-18T04:35:36.875Z,7.32
2023-02-18T04:38:04.320Z,7.24
2023-02-18T04:40:31.169Z,7.28
2023-02-18T04:43:39.949Z,7.43
2023-02-18T04:46:07.194Z,7.48
2023-02-18T04:48:35.258Z,7.59
2023-02-18T04:51:05.179Z,7.31
2023-02-18T04:53:32.303Z,7.44
2023-02-18T04:56:01.972Z,7.50
2023-02-18T04:58:29.194Z,7.51
2023-02-18T05:01:01.131Z,7.45
2023-02-18T05:03:32.929Z,7.14
2023-02-18T05:06:16.892Z,7.52
2023-02-18T05:08:44.170Z,7.58
2023-02-18T05:11:11.009Z,7.76
2023-02-18T05:13:39.339Z,7.51
2023-02-18T05:16:10.266Z,7.95
2023-02-18T05:18:37.546Z,7.52
2023-02-18T05:21:29.891Z,7.74
2023-02-18T05:23:57.016Z,7.81
2023-02-18T05:26:41.782Z,7.79
2023-02-18T05:29:13.178Z,8.01
2023-02-18T05:31:40.216Z,7.63
2023-02-18T05:34:10.376Z,7.59
2023-02-18T05:36:38.342Z,7.61
2023-02-18T05:39:57.324Z,7.81
2023-02-18T05:42:53.341Z,7.25
2023-02-18T05:54:37.186Z,7.79
2023-02-18T05:57:29.941Z,7.67
2023-02-18T06:06:53.580Z,7.78
2023-02-18T06:09:20.729Z,8.03
2023-02-18T06:11:53.632Z,7.64
2023-02-18T06:15:31.198Z,7.72
2023-02-18T06:18:00.171Z,7.98
2023-02-18T06:24:24.523Z,8.10
2023-02-18T06:27:24.677Z,7.85
2023-02-18T06:30:17.823Z,8.00
2023-02-18T06:32:49.534Z,8.17
2023-02-18T06:35:43.711Z,7.87
2023-02-18T06:38:10.788Z,8.26
2023-02-18T06:49:13.930Z,8.31
2023-02-18T06:52:07.974Z,7.94
2023-02-18T06:54:35.729Z,7.96
2023-02-18T06:57:05.094Z,7.91
2023-02-18T07:02:36.672Z,8.05
2023-02-18T07:05:05.748Z,7.97
2023-02-18T07:07:45.828Z,7.68
2023-02-18T07:10:31.970Z,7.95
2023-02-18T07:13:33.441Z,7.75
2023-02-18T07:16:26.465Z,8.00
2023-02-18T07:20:29.516Z,7.90
2023-02-18T07:23:43.256Z,7.72
2023-02-18T07:26:16.592Z,7.83
2023-02-18T07:29:06.128Z,7.74
2023-02-18T07:32:30.528Z,7.86
2023-02-18T07:34:57.360Z,7.91
2023-02-18T07:37:34.130Z,7.81
2023-02-18T07:40:19.540Z,7.90
2023-02-18T07:42:48.311Z,8.00
2023-02-18T07:45:38.318Z,7.90
2023-02-18T07:48:11.622Z,7.83
2023-02-18T07:50:52.875Z,8.05
2023-02-18T07:53:20.705Z,8.17
2023-02-18T07:55:50.802Z,8.19
2023-02-18T07:58:41.993Z,7.83
2023-02-18T08:01:18.229Z,7.96
2023-02-18T08:04:01.118Z,8.18
2023-02-18T08:14:00.275Z,8.07
2023-02-18T08:16:54.954Z,8.12
2023-02-18T08:19:52.805Z,8.16
2023-02-18T08:22:43.230Z,8.68
2023-02-18T08:29:55.141Z,8.67
2023-02-18T08:32:44.649Z,8.75
2023-02-18T08:39:19.980Z,8.64
2023-02-18T08:43:44.805Z,8.63
2023-02-18T08:51:28.821Z,8.67
2023-02-18T08:55:43.709Z,8.74
2023-02-18T08:59:04.793Z,8.84
2023-02-18T09:01:41.446Z,8.99
2023-02-18T09:04:08.538Z,8.87
2023-02-18T09:06:39.178Z,8.47
2023-02-18T09:10:28.183Z,9.31
2023-02-18T09:20:49.169Z,8.84
2023-02-18T09:27:53.182Z,9.07
2023-02-18T09:31:34.446Z,9.17
2023-02-18T09:34:13.379Z,9.14
2023-02-18T09:36:54.680Z,9.09
2023-02-18T09:44:11.835Z,9.19
2023-02-18T09:47:07.848Z,8.97
2023-02-18T09:49:41.856Z,9.03
2023-02-18T09:52:18.086Z,9.30
2023-02-18T09:58:19.738Z,9.17
2023-02-18T10:00:51.336Z,9.04
2023-02-18T10:03:22.680Z,9.06
2023-02-18T10:05:59.354Z,8.98
2023-02-18T10:08:54.526Z,8.95
2023-02-18T10:16:17.835Z,8.92
2023-02-18T10:18:49.819Z,8.83
2023-02-18T10:21:56.848Z,8.80
2023-02-18T10:25:35.788Z,8.81
2023-02-18T10:28:57.112Z,9.05
2023-02-18T10:35:03.297Z,8.91
2023-02-18T10:38:19.461Z,9.00
2023-02-18T10:41:31.600Z,9.48
2023-02-18T10:44:18.911Z,9.30
2023-02-18T10:47:14.630Z,9.32
2023-02-18T10:49:58.157Z,9.44
2023-02-18T10:52:53.561Z,8.95
2023-02-18T10:55:41.981Z,9.28
2023-02-18T10:58:41.278Z,9.22
2023-02-18T11:01:22.723Z,9.25
2023-02-18T11:04:16.732Z,9.19
2023-02-18T11:06:52.171Z,9.31
2023-02-18T11:09:30.592Z,9.27
2023-02-18T11:13:01.465Z,9.17
2023-02-18T11:15:30.851Z,9.03
2023-02-18T11:23:12.770Z,8.90
2023-02-18T11:25:42.594Z,8.84
2023-02-18T11:28:12.571Z,8.91
2023-02-18T11:30:42.706Z,9.14
2023-02-18T11:33:34.710Z,9.39
2023-02-18T11:36:15.426Z,9.17
2023-02-18T11:38:48.581Z,9.26
2023-02-18T11:41:19.445Z,8.78
2023-02-18T11:43:53.909Z,9.15
2023-02-18T11:46:23.423Z,9.49
2023-02-18T11:48:54.174Z,9.14
2023-02-18T11:51:24.590Z,8.96
2023-02-18T11:54:03.910Z,8.82
2023-02-18T11:56:34.290Z,8.95
2023-02-18T11:59:04.928Z,8.89
2023-02-18T12:01:50.736Z,9.15
2023-02-18T12:04:21.561Z,9.30
2023-02-18T12:06:48.343Z,9.16
2023-02-18T12:09:25.234Z,9.09
2023-02-18T12:11:59.802Z,8.90
2023-02-18T12:14:53.494Z,9.10
2023-02-18T12:17:51.168Z,9.14
2023-02-18T12:20:58.121Z,9.48
2023-02-18T12:24:21.735Z,9.04
2023-02-18T12:35:07.741Z,9.14
2023-02-18T12:38:17.609Z,9.67
2023-02-18T12:41:08.069Z,9.67
2023-02-18T12:43:44.490Z,9.81
2023-02-18T12:46:33.064Z,9.44
2023-02-18T12:49:18.138Z,9.67
2023-02-18T12:52:05.425Z,9.87
2023-02-18T12:55:11.755Z,9.50
2023-02-18T12:57:50.286Z,9.43
2023-02-18T13:00:49.572Z,9.46
2023-02-18T13:03:48.420Z,9.97
2023-02-18T13:06:33.697Z,9.79
2023-02-18T13:09:03.083Z,9.55
2023-02-18T13:11:50.333Z,9.58
2023-02-18T13:14:37.620Z,9.65
2023-02-18T13:17:17.291Z,9.31
2023-02-18T13:19:57.439Z,9.49
2023-02-18T13:22:50.776Z,9.60
2023-02-18T13:25:19.493Z,9.31
2023-02-18T13:28:00.290Z,9.35
2023-02-18T13:30:49.329Z,9.48
2023-02-18T13:33:41.458Z,9.51
2023-02-18T13:36:26.282Z,9.70
2023-02-18T13:39:05.379Z,9.90
2023-02-18T13:41:41.657Z,9.72
2023-02-18T13:44:29.916Z,9.61
2023-02-18T13:46:59.208Z,9.60
2023-02-18T13:49:40.029Z,10.05
2023-02-18T13:52:17.596Z,9.72
2023-02-18T13:54:46.638Z,9.97
2023-02-18T13:57:21.793Z,9.77
2023-02-18T14:00:00.528Z,9.61
2023-02-18T14:02:27.792Z,9.45
2023-02-18T14:04:57.088Z,9.58
2023-02-18T14:07:44.533Z,9.32
2023-02-18T14:10:20.455Z,9.45
2023-02-18T14:12:52.097Z,9.39
2023-02-18T14:15:20.348Z,9.78
2023-02-18T14:18:03.774Z,9.50
2023-02-18T14:20:42.570Z,9.27
2023-02-18T14:23:24.082Z,9.11
2023-02-18T14:26:06.867Z,9.19
2023-02-18T14:28:37.991Z,9.12
2023-02-18T14:31:07.225Z,9.33
2023-02-18T14:33:36.799Z,9.46
2023-02-18T14:36:11.255Z,9.41
2023-02-18T14:39:14.196Z,9.29
2023-02-18T14:41:55.819Z,9.27
2023-02-18T14:44:39.948Z,9.30
2023-02-18T14:47:27.083Z,9.32
2023-02-18T14:50:00.137Z,9.46
2023-02-18T14:52:44.584Z,9.33
2023-02-18T14:55:34.131Z,9.43
2023-02-18T14:58:04.963Z,9.20
2023-02-18T15:00:42.814Z,9.28
2023-02-18T15:03:15.330Z,9.46
2023-02-18T15:05:46.008Z,9.11
2023-02-18T15:08:22.173Z,9.23
2023-02-18T15:11:07.019Z,8.87
2023-02-18T15:13:44.461Z,9.26
2023-02-18T15:16:20.940Z,9.21
2023-02-18T15:18:59.110Z,9.20
2023-02-18T15:21:35.349Z,9.15
2023-02-18T15:24:26.887Z,9.19
2023-02-18T15:27:02.049Z,9.17
2023-02-18T15:29:33.961Z,9.40
2023-02-18T15:32:01.946Z,9.17
2023-02-18T15:34:44.465Z,9.20
2023-02-18T15:37:17.785Z,9.34
2023-02-18T15:39:47.228Z,9.12
2023-02-18T15:42:17.426Z,8.98
2023-02-18T15:44:48.846Z,9.16
2023-02-18T15:47:17.616Z,9.20
2023-02-18T15:49:54.313Z,9.16
2023-02-18T15:52:52.725Z,9.12
2023-02-18T15:55:30.482Z,9.06
2023-02-18T15:58:05.716Z,9.13
2023-02-18T16:00:49.356Z,8.71
2023-02-18T16:03:28.153Z,9.02
2023-02-18T16:06:10.171Z,8.65
2023-02-18T16:08:41.160Z,8.78
2023-02-18T16:11:22.934Z,8.53
2023-02-18T16:13:49.964Z,8.43
2023-02-18T16:16:34.520Z,8.27
2023-02-18T16:19:04.541Z,8.57
2023-02-18T16:22:00.582Z,8.43
2023-02-18T16:24:49.498Z,8.77
2023-02-18T16:27:17.749Z,8.46
2023-02-18T16:29:45.175Z,8.38
2023-02-18T16:32:12.178Z,8.88
2023-02-18T16:34:38.972Z,8.30
2023-02-18T16:37:25.710Z,8.07
2023-02-18T16:39:55.363Z,8.46
2023-02-18T16:42:25.130Z,8.62
2023-02-18T16:44:55.230Z,8.41
2023-02-18T16:47:22.261Z,8.15
2023-02-18T16:49:51.274Z,8.47
2023-02-18T16:52:19.717Z,8.33
2023-02-18T16:54:50.181Z,8.18
2023-02-18T16:57:21.468Z,8.35
2023-02-18T16:59:48.992Z,8.17
2023-02-18T17:02:21.353Z,7.93
2023-02-18T17:04:49.119Z,7.90
2023-02-18T17:07:19.995Z,8.23
2023-02-18T17:09:47.162Z,8.15
2023-02-18T17:12:15.145Z,7.88
2023-02-18T17:14:42.091Z,7.89
2023-02-18T17:17:18.055Z,7.91
2023-02-18T17:19:45.775Z,8.16
2023-02-18T17:22:14.069Z,8.05
2023-02-18T17:24:43.763Z,7.90
2023-02-18T17:27:11.431Z,8.10
2023-02-18T17:29:38.319Z,7.96
2023-02-18T17:32:07.243Z,7.84
2023-02-18T17:34:37.924Z,7.90
2023-02-18T17:37:06.675Z,8.13
2023-02-18T17:39:33.791Z,7.85
2023-02-18T17:42:01.482Z,7.93
2023-02-18T17:44:30.108Z,7.86
2023-02-18T17:46:57.201Z,7.86
2023-02-18T17:49:25.810Z,7.65
2023-02-18T17:52:02.744Z,7.82
2023-02-18T17:54:31.534Z,8.19
2023-02-18T17:56:58.849Z,8.04
2023-02-18T17:59:28.863Z,7.88
2023-02-18T18:01:55.792Z,7.57
2023-02-18T18:04:24.717Z,7.60
2023-02-18T18:06:51.809Z,7.88
2023-02-18T18:09:19.176Z,7.59
2023-02-18T18:12:14.554Z,7.74
2023-02-18T18:15:37.677Z,7.80
2023-02-18T18:18:13.537Z,7.74
2023-02-18T18:20:46.549Z,7.70
2023-02-18T18:23:18.240Z,7.88
2023-02-18T18:25:58.257Z,7.74
2023-02-18T18:28:33.001Z,7.65
2023-02-18T18:31:05.560Z,7.61
2023-02-18T18:33:52.139Z,7.61
2023-02-18T18:36:24.761Z,7.76
2023-02-18T18:38:53.364Z,7.51
2023-02-18T18:41:22.826Z,7.48
2023-02-18T18:43:50.349Z,7.56
2023-02-18T18:46:24.758Z,7.57
2023-02-18T18:48:51.763Z,7.65
2023-02-18T18:51:25.184Z,7.36
2023-02-18T18:53:52.785Z,7.38
2023-02-18T18:56:22.123Z,7.24
2023-02-18T18:58:49.747Z,7.37
2023-02-18T19:01:22.361Z,7.42
2023-02-18T19:03:49.739Z,7.30
2023-02-18T19:06:20.410Z,7.10
2023-02-18T19:08:48.857Z,7.18
2023-02-18T19:11:20.998Z,7.26
2023-02-18T19:13:49.282Z,7.25
2023-02-18T19:16:26.566Z,7.11
2023-02-18T19:18:54.631Z,6.98
2023-02-18T19:21:21.712Z,7.04
2023-02-18T19:23:48.988Z,7.10
2023-02-18T19:26:17.595Z,7.29
2023-02-18T19:28:45.802Z,7.16
2023-02-18T19:31:13.691Z,7.23
2023-02-18T19:33:40.926Z,7.48
2023-02-18T19:36:11.030Z,7.17
2023-02-18T19:38:39.563Z,7.46
2023-02-18T19:41:14.195Z,7.44
2023-02-18T19:43:44.283Z,7.34
2023-02-18T19:46:17.135Z,7.38
2023-02-18T19:48:59.899Z,7.43
2023-02-18T19:51:30.379Z,7.37
2023-02-18T19:53:58.357Z,7.47
2023-02-18T19:56:26.464Z,7.49
2023-02-18T19:58:56.939Z,7.51
2023-02-18T20:01:26.877Z,7.48
2023-02-18T20:03:54.541Z,7.56
2023-02-18T20:06:24.005Z,7.60
2023-02-18T20:08:51.456Z,7.63
2023-02-18T20:11:18.626Z,7.78
2023-02-18T20:13:48.834Z,7.71
2023-02-18T20:16:15.995Z,7.56
2023-02-18T20:18:44.166Z,7.24
2023-02-18T20:21:13.069Z,7.48
2023-02-18T20:23:40.441Z,7.58
2023-02-18T20:26:15.031Z,7.60
2023-02-18T20:29:39.050Z,7.39
2023-02-18T20:36:56.469Z,7.66
2023-02-18T20:39:26.671Z,7.64
2023-02-18T20:41:56.783Z,7.57
2023-02-18T20:46:07.833Z,7.84
2023-02-18T20:48:37.048Z,7.50
2023-02-18T20:51:09.983Z,7.33
2023-02-18T21:02:40.308Z,7.77
2023-02-18T21:07:54.342Z,7.53
2023-02-18T21:10:22.322Z,7.61
2023-02-18T21:12:50.751Z,7.34
2023-02-18T21:15:24.260Z,7.61
2023-02-18T21:17:51.076Z,7.46
2023-02-18T21:20:24.352Z,7.39
2023-02-18T21:22:51.138Z,7.39
2023-02-18T21:25:20.933Z,7.30
2023-02-18T21:27:49.496Z,7.30
2023-02-18T21:30:17.067Z,7.14
2023-02-18T21:32:43.926Z,7.21
2023-02-18T21:35:11.350Z,6.91
2023-02-18T21:37:38.744Z,6.92
2023-02-18T21:40:05.977Z,7.03
2023-02-18T21:42:33.999Z,7.21
2023-02-18T21:45:05.427Z,7.32
2023-02-18T21:47:32.614Z,7.26
2023-02-18T21:49:59.447Z,7.08
2023-02-18T21:52:29.751Z,7.12
2023-02-18T21:54:56.848Z,6.75
2023-02-18T21:57:31.333Z,6.84
2023-02-18T22:00:03.746Z,6.70
2023-02-18T22:03:12.336Z,6.94
2023-02-18T22:05:42.299Z,6.85
2023-02-18T22:08:10.290Z,6.93
2023-02-18T22:10:39.306Z,6.93
2023-02-18T22:13:06.812Z,7.09
2023-02-18T22:15:33.830Z,6.90
2023-02-18T22:18:01.546Z,6.97
2023-02-18T22:20:32.381Z,6.95
2023-02-18T22:22:59.690Z,7.01
2023-02-18T22:25:26.402Z,7.07
2023-02-18T22:27:53.552Z,7.25
2023-02-18T22:30:20.836Z,6.70
2023-02-18T22:32:48.373Z,6.72
2023-02-18T22:35:16.778Z,6.84
2023-02-18T22:37:44.430Z,6.76
2023-02-18T22:40:11.267Z,6.61
2023-02-18T22:42:38.559Z,6.65
2023-02-18T22:45:05.837Z,6.86
2023-02-18T22:47:33.050Z,6.95
2023-02-18T22:49:59.911Z,6.55
2023-02-18T22:52:28.592Z,6.67
2023-02-18T22:54:55.451Z,6.65
2023-02-18T22:57:22.138Z,6.84
2023-02-18T23:00:03.365Z,6.78
2023-02-18T23:02:30.224Z,6.88
2023-02-18T23:04:57.191Z,6.50
2023-02-18T23:07:24.942Z,6.64
2023-02-18T23:09:51.995Z,6.61
2023-02-18T23:12:18.798Z,6.49
2023-02-18T23:14:45.424Z,6.29
2023-02-18T23:17:15.247Z,6.26
2023-02-18T23:19:50.852Z,6.23
2023-02-18T23:22:24.783Z,6.38
2023-02-18T23:24:51.926Z,6.49
2023-02-18T23:27:18.967Z,6.56
2023-02-18T23:29:45.849Z,6.19
2023-02-18T23:32:13.126Z,6.40
2023-02-18T23:34:40.301Z,6.58
2023-02-18T23:37:07.078Z,6.34
2023-02-18T23:39:34.170Z,6.16
2023-02-18T23:42:01.347Z,6.10
2023-02-18T23:44:28.320Z,6.35
2023-02-18T23:46:55.755Z,6.25
2023-02-18T23:49:25.193Z,6.24
2023-02-18T23:52:18.046Z,6.16
2023-02-18T23:54:44.980Z,6.30
2023-02-18T23:57:12.413Z,6.07
2023-02-18T23:59:39.322Z,6.05
